Parma, Ohio
Current Conditions -  °F | °C
As of 9:17 PM on Sunday 25 Jan 2015 (Local Time) from KCLE Reporting Station
Light Snow Light Snow  
Wind Chill:   Ceiling: 6000
Heat Index: 20°   Visibility: 7mi
Dew Point: 15°   Wind: 17mph
Humidity: 81%   Direction: 40°NE
Pressure: 29.92"   Gusts: NA
Location:  41.38°N, 81.73°W
Report Text: KCLE 260217Z 04015KT 7SM -SN SCT029 OVC060 M07/M09 A2992 RMK AO2 P0000 T10671094
Loading
Personal Weather Stations






























Interactive Weather Map New forecast layout! Learn more

10-Day Weather Forecast

Advertisements
Track Severe Weather on mobile